首页
METAR-TAF:

METAR-TAF

机场 :

St. George Municipal Airport

圣乔治, 犹他州, 美国

纬度: 37-05N, 经度: 113-36W, 海拔: 896米

当前天气观测

该预报发布于51分钟前的22:56 UTC
风速10节,风向西,有时为18节阵风
温度 40°C
湿度 6%
气压 1012 hPa
能見度: 16.1公里
天空无云

METAR: KSGU 122256Z AUTO 27010G18KT 10SM CLR 40/M04 A2987 RMK AO2 SLP071 T04001039

时间: 17:47 (23:47 UTC)

预报

该预报发布于6小时和27分钟前的17:20 UTC
预报有效从12日的 18点(UTC)到 13日的 18点(UTC)
风速4节,风向多变
能見度: 10公里
天空无云
从 12日的 1900点(UTC)
风速9节,风向西转西南,有时为19节阵风
能見度: 10公里
天空无云
从 13日的 0400点(UTC)
风速6节,风向东南
能見度: 10公里
天空无云

TAF: KSGU 121720Z 1218/1318 VRB04KT P6SM SKC FM121900 25009G19KT P6SM SKC FM130400 14006KT P6SM SKC

超过4000个机场的气象观测和天气预报(METAR&TAF报告)。

可查询的气象台以黄色和红色小点在地图上表示。

将鼠标移到小点上方,可查看气象台名称。

然后点击查看天气观测和预报。

如需切换地图:点击带黑十字的绿色按钮放大地图;点击带横线的绿色按钮缩小地图;或者点击绿色箭头查看邻近地区的地图。


METAR-TAF: